createdAt,value
2022-11-08T00:01:35.725Z,5.41
2022-11-08T00:04:22.575Z,5.17
2022-11-08T00:07:30.005Z,5.23
2022-11-08T00:10:34.853Z,5.11
2022-11-08T00:13:39.873Z,5.14
2022-11-08T00:16:27.374Z,5.01
2022-11-08T00:19:13.843Z,4.86
2022-11-08T00:22:00.148Z,5.02
2022-11-08T00:24:47.067Z,5.16
2022-11-08T00:27:33.718Z,5.15
2022-11-08T00:30:19.986Z,4.87
2022-11-08T00:33:06.164Z,4.94
2022-11-08T00:35:52.536Z,4.91
2022-11-08T00:38:43.611Z,4.87
2022-11-08T00:41:29.810Z,4.70
2022-11-08T00:44:16.185Z,4.75
2022-11-08T00:47:02.652Z,4.52
2022-11-08T00:49:49.247Z,4.59
2022-11-08T00:52:35.624Z,4.59
2022-11-08T00:55:22.105Z,4.59
2022-11-08T00:58:08.628Z,4.42
2022-11-08T01:00:55.818Z,4.53
2022-11-08T01:03:42.740Z,4.52
2022-11-08T01:06:29.052Z,4.50
2022-11-08T01:09:15.287Z,4.35
2022-11-08T01:12:01.500Z,4.45
2022-11-08T01:14:47.922Z,4.43
2022-11-08T01:17:34.443Z,4.44
2022-11-08T01:20:20.676Z,4.26
2022-11-08T01:23:07.829Z,4.29
2022-11-08T01:25:54.277Z,4.36
2022-11-08T01:28:40.901Z,4.54
2022-11-08T01:31:30.034Z,4.40
2022-11-08T01:34:15.989Z,4.37
2022-11-08T01:37:02.381Z,4.57
2022-11-08T01:39:48.908Z,4.51
2022-11-08T01:42:35.339Z,4.58
2022-11-08T01:45:59.417Z,4.53
2022-11-08T01:48:57.885Z,4.48
2022-11-08T01:52:08.493Z,4.14
2022-11-08T01:54:59.012Z,4.44
2022-11-08T01:57:48.323Z,4.49
2022-11-08T02:00:37.354Z,4.24
2022-11-08T02:03:23.753Z,4.20
2022-11-08T02:06:11.526Z,4.34
2022-11-08T02:09:02.594Z,4.16
2022-11-08T02:11:50.191Z,4.14
2022-11-08T02:14:37.901Z,4.08
2022-11-08T02:17:24.259Z,4.11
2022-11-08T02:20:10.999Z,4.27
2022-11-08T02:23:05.220Z,4.26
2022-11-08T02:25:51.812Z,4.23
2022-11-08T02:28:46.449Z,4.18
2022-11-08T02:31:33.049Z,4.29
2022-11-08T02:34:42.549Z,4.33
2022-11-08T02:37:28.866Z,4.30
2022-11-08T02:40:15.137Z,4.10
2022-11-08T02:43:01.208Z,4.15
2022-11-08T02:45:48.612Z,4.27
2022-11-08T02:48:34.936Z,4.15
2022-11-08T02:51:21.059Z,4.18
2022-11-08T02:54:07.568Z,3.81
2022-11-08T02:56:53.869Z,4.03
2022-11-08T02:59:40.252Z,3.99
2022-11-08T03:02:26.563Z,3.86
2022-11-08T03:05:12.970Z,3.88
2022-11-08T03:07:59.301Z,3.98
2022-11-08T03:10:45.632Z,3.79
2022-11-08T03:13:32.168Z,3.88
2022-11-08T03:16:18.309Z,3.76
2022-11-08T03:19:04.698Z,3.72
2022-11-08T03:21:50.923Z,3.81
2022-11-08T03:24:37.283Z,3.84
2022-11-08T03:27:23.967Z,3.75
2022-11-08T03:30:10.280Z,3.62
2022-11-08T03:32:56.410Z,3.66
2022-11-08T03:35:43.301Z,3.63
2022-11-08T03:38:29.661Z,3.80
2022-11-08T03:41:16.100Z,3.75
2022-11-08T03:44:02.799Z,3.66
2022-11-08T03:46:48.973Z,3.56
2022-11-08T03:49:35.617Z,3.52
2022-11-08T03:52:21.782Z,3.56
2022-11-08T03:55:10.426Z,3.39
2022-11-08T03:57:56.937Z,3.31
2022-11-08T04:00:43.198Z,3.46
2022-11-08T04:03:29.590Z,3.39
2022-11-08T04:06:16.073Z,3.42
2022-11-08T04:09:02.557Z,3.44
2022-11-08T04:12:07.402Z,3.60
2022-11-08T04:15:12.236Z,3.40
2022-11-08T04:18:18.581Z,3.44
2022-11-08T04:21:21.512Z,3.39
2022-11-08T04:24:07.987Z,3.38
2022-11-08T04:26:54.074Z,3.34
2022-11-08T04:29:40.291Z,3.54
2022-11-08T04:32:26.689Z,3.05
2022-11-08T04:35:13.173Z,3.34
2022-11-08T04:38:01.476Z,3.48
2022-11-08T04:40:48.112Z,3.56
2022-11-08T04:43:34.837Z,3.28
2022-11-08T04:46:24.327Z,3.58
2022-11-08T04:49:10.769Z,3.58
2022-11-08T04:51:57.205Z,3.58
2022-11-08T04:54:46.348Z,3.49
2022-11-08T04:57:32.951Z,3.47
2022-11-08T05:00:19.229Z,3.65
2022-11-08T05:03:05.428Z,3.57
2022-11-08T05:05:51.738Z,3.59
2022-11-08T05:08:39.068Z,3.65
2022-11-08T05:11:28.165Z,3.36
2022-11-08T05:14:14.399Z,3.10
2022-11-08T05:17:00.923Z,3.35
2022-11-08T05:20:05.693Z,3.28
2022-11-08T05:23:10.540Z,3.28
2022-11-08T05:25:57.980Z,3.45
2022-11-08T05:28:44.664Z,3.49
2022-11-08T05:31:31.048Z,3.48
2022-11-08T05:34:17.441Z,3.42
2022-11-08T05:37:03.630Z,3.45
2022-11-08T05:39:49.957Z,3.09
2022-11-08T05:42:36.398Z,3.47
2022-11-08T05:45:22.948Z,3.50
2022-11-08T05:48:09.327Z,3.31
2022-11-08T05:50:55.878Z,3.34
2022-11-08T05:53:42.948Z,3.38
2022-11-08T05:56:29.107Z,3.37
2022-11-08T05:59:15.501Z,3.29
2022-11-08T06:02:02.157Z,3.34
2022-11-08T06:04:49.886Z,3.36
2022-11-08T06:07:36.614Z,3.28
2022-11-08T06:10:23.723Z,3.38
2022-11-08T06:13:09.748Z,3.33
2022-11-08T06:15:59.777Z,3.14
2022-11-08T06:18:47.032Z,3.17
2022-11-08T06:21:33.263Z,3.18
2022-11-08T06:24:19.378Z,3.29
2022-11-08T06:27:05.828Z,3.43
2022-11-08T06:29:52.164Z,3.31
2022-11-08T06:32:38.570Z,3.44
2022-11-08T06:35:24.781Z,3.51
2022-11-08T06:38:12.532Z,3.45
2022-11-08T06:41:00.280Z,3.32
2022-11-08T06:43:46.535Z,3.41
2022-11-08T06:46:33.164Z,3.55
2022-11-08T06:49:19.643Z,3.58
2022-11-08T06:52:06.314Z,3.79
2022-11-08T06:54:52.709Z,3.76
2022-11-08T06:57:38.937Z,3.99
2022-11-08T07:00:26.124Z,4.10
2022-11-08T07:03:13.770Z,4.29
2022-11-08T07:06:06.806Z,4.33
2022-11-08T07:08:53.251Z,4.64
2022-11-08T07:11:39.944Z,4.63
2022-11-08T07:14:26.220Z,4.58
2022-11-08T07:17:12.474Z,4.65
2022-11-08T07:19:58.940Z,4.58
2022-11-08T07:22:45.509Z,4.58
2022-11-08T07:25:32.748Z,4.70
2022-11-08T07:28:19.768Z,4.70
2022-11-08T07:31:07.448Z,4.90
2022-11-08T07:33:53.513Z,5.11
2022-11-08T07:36:40.098Z,5.03
2022-11-08T07:39:26.323Z,5.11
2022-11-08T07:42:12.799Z,5.08
2022-11-08T07:45:00.524Z,5.38
2022-11-08T07:47:47.224Z,5.43
2022-11-08T07:50:33.696Z,5.53
2022-11-08T07:53:20.881Z,5.91
2022-11-08T07:56:07.606Z,6.07
2022-11-08T07:58:53.724Z,6.53
2022-11-08T08:01:40.166Z,6.85
2022-11-08T08:04:28.795Z,7.11
2022-11-08T08:07:15.707Z,7.45
2022-11-08T08:10:02.052Z,7.59
2022-11-08T08:12:48.287Z,7.88
2022-11-08T08:15:34.736Z,8.02
2022-11-08T08:18:21.658Z,8.04
2022-11-08T08:21:08.131Z,8.36
2022-11-08T08:23:54.638Z,8.28
2022-11-08T08:26:40.722Z,8.70
2022-11-08T08:29:27.597Z,8.86
2022-11-08T08:32:13.657Z,8.97
2022-11-08T08:35:00.181Z,9.30
2022-11-08T08:37:46.874Z,9.14
2022-11-08T08:40:33.649Z,9.03
2022-11-08T08:43:20.720Z,9.60
2022-11-08T08:46:07.496Z,9.53
2022-11-08T08:48:53.706Z,9.68
2022-11-08T08:51:39.916Z,9.92
2022-11-08T08:54:29.448Z,10.09
2022-11-08T08:57:16.052Z,10.29
2022-11-08T09:03:10.666Z,10.46
2022-11-08T09:06:00.670Z,10.47
2022-11-08T09:08:47.222Z,10.43
2022-11-08T09:11:33.612Z,10.34
2022-11-08T09:14:20.064Z,10.53
2022-11-08T09:17:06.338Z,10.53
2022-11-08T09:19:56.973Z,10.36
2022-11-08T09:22:43.912Z,10.56
2022-11-08T09:25:30.962Z,10.68
2022-11-08T09:28:18.737Z,10.81
2022-11-08T09:31:07.689Z,10.68
2022-11-08T09:33:54.033Z,10.83
2022-11-08T09:36:40.788Z,10.82
2022-11-08T09:39:26.910Z,10.56
2022-11-08T09:42:22.213Z,10.88
2022-11-08T09:45:15.852Z,10.96
2022-11-08T09:48:17.000Z,11.09
2022-11-08T09:51:09.892Z,11.18
2022-11-08T09:53:59.633Z,11.43
2022-11-08T09:56:47.274Z,11.64
2022-11-08T10:00:00.308Z,12.03
2022-11-08T10:02:46.966Z,12.11
2022-11-08T10:05:41.299Z,12.45
2022-11-08T10:08:42.964Z,12.51
2022-11-08T10:11:41.156Z,12.53
2022-11-08T10:14:52.591Z,12.80
2022-11-08T10:17:55.309Z,12.88
2022-11-08T10:21:01.747Z,12.84
2022-11-08T10:24:09.329Z,12.78
2022-11-08T10:26:58.269Z,12.75
2022-11-08T10:29:45.525Z,12.63
2022-11-08T10:32:34.753Z,12.60
2022-11-08T10:35:37.358Z,12.64
2022-11-08T10:38:31.223Z,12.87
2022-11-08T10:41:30.029Z,12.93
2022-11-08T10:44:22.439Z,12.74
2022-11-08T10:47:18.801Z,12.81
2022-11-08T10:50:14.414Z,12.87
2022-11-08T10:53:02.788Z,12.65
2022-11-08T10:55:52.303Z,12.93
2022-11-08T10:58:41.286Z,12.95
2022-11-08T11:01:27.988Z,13.01
2022-11-08T11:04:27.367Z,13.15
2022-11-08T11:07:31.008Z,13.27
2022-11-08T11:10:23.779Z,13.36
2022-11-08T11:13:18.883Z,13.36
2022-11-08T11:16:05.468Z,13.42
2022-11-08T11:18:51.724Z,13.91
2022-11-08T11:21:39.801Z,14.08
2022-11-08T11:24:26.517Z,14.10
2022-11-08T11:27:24.134Z,14.14
2022-11-08T11:30:28.267Z,14.13
2022-11-08T11:33:30.294Z,14.08
2022-11-08T11:36:20.629Z,13.95
2022-11-08T11:39:16.184Z,13.92
2022-11-08T11:42:47.356Z,13.80
2022-11-08T11:45:46.936Z,13.63
2022-11-08T11:48:39.699Z,13.47
2022-11-08T11:51:29.637Z,13.50
2022-11-08T11:54:18.803Z,13.58
2022-11-08T11:57:12.220Z,13.67
2022-11-08T12:00:04.976Z,13.70
2022-11-08T12:03:07.989Z,13.79
2022-11-08T12:06:12.099Z,13.74
2022-11-08T12:09:26.030Z,13.91
2022-11-08T12:12:55.421Z,14.14
2022-11-08T12:16:15.106Z,14.12
2022-11-08T12:19:13.306Z,14.52
2022-11-08T12:22:24.109Z,14.48
2022-11-08T12:25:17.984Z,14.58
2022-11-08T12:28:18.303Z,14.85
2022-11-08T12:31:31.868Z,14.92
2022-11-08T12:34:29.846Z,15.02
2022-11-08T12:37:44.173Z,15.00
2022-11-08T12:40:43.076Z,15.02
2022-11-08T12:43:58.533Z,14.99
2022-11-08T12:47:15.414Z,15.00
2022-11-08T12:50:23.497Z,15.22
2022-11-08T12:53:25.271Z,15.25
2022-11-08T12:56:17.543Z,15.37
2022-11-08T12:59:12.092Z,15.34
2022-11-08T13:02:00.730Z,15.56
2022-11-08T13:04:56.822Z,15.45
2022-11-08T13:07:56.257Z,15.39
2022-11-08T13:11:03.336Z,15.41
2022-11-08T13:13:55.926Z,15.35
2022-11-08T13:16:45.245Z,15.22
2022-11-08T13:20:06.167Z,15.26
2022-11-08T13:23:00.853Z,15.01
2022-11-08T13:25:47.532Z,15.10
2022-11-08T13:28:40.303Z,14.88
2022-11-08T13:31:47.421Z,14.84
2022-11-08T13:34:52.715Z,14.82
2022-11-08T13:37:54.609Z,14.63
2022-11-08T13:41:12.190Z,14.60
2022-11-08T13:43:58.864Z,14.53
2022-11-08T13:46:46.406Z,14.58
2022-11-08T13:49:32.664Z,14.49
2022-11-08T13:53:00.915Z,14.46
2022-11-08T13:55:56.075Z,14.50
2022-11-08T13:58:45.351Z,14.48
2022-11-08T14:01:35.962Z,14.50
2022-11-08T14:04:34.806Z,14.41
2022-11-08T14:07:34.982Z,14.25
2022-11-08T14:10:35.393Z,14.33
2022-11-08T14:13:39.989Z,14.17
2022-11-08T14:16:32.389Z,13.88
2022-11-08T14:19:24.797Z,13.91
2022-11-08T14:22:21.829Z,13.92
2022-11-08T14:25:17.940Z,14.01
2022-11-08T14:28:04.928Z,13.91
2022-11-08T14:30:51.626Z,14.01
2022-11-08T14:33:42.415Z,13.90
2022-11-08T14:36:31.540Z,13.83
2022-11-08T14:39:19.232Z,13.61
2022-11-08T14:42:16.108Z,13.54
2022-11-08T14:45:02.236Z,13.52
2022-11-08T14:47:53.996Z,13.53
2022-11-08T14:50:40.360Z,13.57
2022-11-08T14:53:32.604Z,13.32
2022-11-08T14:56:36.608Z,13.52
2022-11-08T14:59:24.728Z,13.54
2022-11-08T15:02:11.029Z,13.49
2022-11-08T15:04:57.453Z,13.47
2022-11-08T15:07:46.602Z,13.45
2022-11-08T15:10:33.566Z,13.33
2022-11-08T15:13:20.629Z,13.41
2022-11-08T15:16:08.295Z,13.27
2022-11-08T15:18:54.922Z,13.06
2022-11-08T15:21:48.216Z,13.07
2022-11-08T15:24:38.539Z,12.87
2022-11-08T15:27:25.072Z,12.78
2022-11-08T15:30:17.121Z,12.80
2022-11-08T15:33:04.768Z,12.71
2022-11-08T15:35:51.526Z,12.65
2022-11-08T15:38:40.213Z,12.48
2022-11-08T15:41:33.889Z,12.33
2022-11-08T15:44:25.429Z,12.24
2022-11-08T15:47:34.498Z,12.13
2022-11-08T15:50:25.600Z,12.14
2022-11-08T15:53:11.966Z,11.96
2022-11-08T15:56:02.084Z,11.82
2022-11-08T15:58:48.400Z,11.63
2022-11-08T16:01:37.669Z,11.47
2022-11-08T16:04:28.906Z,11.49
2022-11-08T16:07:15.511Z,11.40
2022-11-08T16:10:01.895Z,11.33
2022-11-08T16:12:48.520Z,11.10
2022-11-08T16:15:35.612Z,11.11
2022-11-08T16:18:21.888Z,10.97
2022-11-08T16:21:13.293Z,10.96
2022-11-08T16:23:59.786Z,10.92
2022-11-08T16:26:47.476Z,10.85
2022-11-08T16:29:34.955Z,11.05
2022-11-08T16:32:21.175Z,11.08
2022-11-08T16:35:07.862Z,11.06
2022-11-08T16:37:54.170Z,10.94
2022-11-08T16:40:41.304Z,11.00
2022-11-08T16:43:27.793Z,10.69
2022-11-08T16:46:14.822Z,10.72
2022-11-08T16:49:01.166Z,10.16
2022-11-08T16:51:48.502Z,10.61
2022-11-08T16:54:34.679Z,10.44
2022-11-08T16:57:34.308Z,10.51
2022-11-08T17:00:22.041Z,10.54
2022-11-08T17:03:11.956Z,10.57
2022-11-08T17:05:58.889Z,10.39
2022-11-08T17:08:46.095Z,10.44
2022-11-08T17:11:32.357Z,10.27
2022-11-08T17:14:18.529Z,10.23
2022-11-08T17:17:05.360Z,10.25
2022-11-08T17:19:51.965Z,10.07
2022-11-08T17:22:39.218Z,10.15
2022-11-08T17:25:25.816Z,10.13
2022-11-08T17:28:12.644Z,10.09
2022-11-08T17:31:18.976Z,9.98
2022-11-08T17:34:05.102Z,10.09
2022-11-08T17:36:52.885Z,9.93
2022-11-08T17:39:39.143Z,9.79
2022-11-08T17:42:25.823Z,10.05
2022-11-08T17:45:12.949Z,9.97
2022-11-08T17:47:59.197Z,10.07
2022-11-08T17:50:48.668Z,10.08
2022-11-08T17:53:35.707Z,9.97
2022-11-08T17:56:22.046Z,10.16
2022-11-08T17:59:08.364Z,10.01
2022-11-08T18:01:55.110Z,10.21
2022-11-08T18:04:41.889Z,10.25
2022-11-08T18:07:28.110Z,10.17
2022-11-08T18:10:16.428Z,10.31
2022-11-08T18:13:02.957Z,10.31
2022-11-08T18:15:49.812Z,10.15
2022-11-08T18:18:36.902Z,10.35
2022-11-08T18:21:23.533Z,10.26
2022-11-08T18:24:10.588Z,10.47
2022-11-08T18:26:56.962Z,10.42
2022-11-08T18:29:43.222Z,10.48
2022-11-08T18:32:30.713Z,10.39
2022-11-08T18:35:17.061Z,10.16
2022-11-08T18:38:03.688Z,10.45
2022-11-08T18:40:49.907Z,10.34
2022-11-08T18:43:38.185Z,10.30
2022-11-08T18:46:26.163Z,10.28
2022-11-08T18:49:12.626Z,9.98
2022-11-08T18:51:59.201Z,10.07
2022-11-08T18:54:47.312Z,10.20
2022-11-08T18:57:33.899Z,9.96
2022-11-08T19:00:20.761Z,9.97
2022-11-08T19:03:07.108Z,9.88
2022-11-08T19:05:54.001Z,10.19
2022-11-08T19:08:40.235Z,10.18
2022-11-08T19:11:28.489Z,10.34
2022-11-08T19:14:14.683Z,10.45
2022-11-08T19:17:01.238Z,10.56
2022-11-08T19:19:47.586Z,10.26
2022-11-08T19:22:33.947Z,10.35
2022-11-08T19:25:20.060Z,10.37
2022-11-08T19:28:06.619Z,10.22
2022-11-08T19:30:53.953Z,10.33
2022-11-08T19:33:40.649Z,10.25
2022-11-08T19:36:28.810Z,10.27
2022-11-08T19:39:14.998Z,10.16
2022-11-08T19:42:01.467Z,9.96
2022-11-08T19:44:47.608Z,9.96
2022-11-08T19:47:33.993Z,10.11
2022-11-08T19:50:20.287Z,9.97
2022-11-08T19:53:07.708Z,9.93
2022-11-08T19:56:01.247Z,9.68
2022-11-08T19:58:47.717Z,9.49
2022-11-08T20:01:39.767Z,9.76
2022-11-08T20:04:26.459Z,9.95
2022-11-08T20:07:12.783Z,9.82
2022-11-08T20:09:59.514Z,9.89
2022-11-08T20:12:45.708Z,10.00
2022-11-08T20:15:32.057Z,9.99
2022-11-08T20:18:18.879Z,10.00
2022-11-08T20:21:07.404Z,9.98
2022-11-08T20:23:53.594Z,10.01
2022-11-08T20:26:41.245Z,9.79
2022-11-08T20:29:27.792Z,9.67
2022-11-08T20:32:14.155Z,9.89
2022-11-08T20:35:00.861Z,9.84
2022-11-08T20:37:47.132Z,10.03
2022-11-08T20:40:33.441Z,9.89
2022-11-08T20:43:21.756Z,10.05
2022-11-08T20:46:13.872Z,10.15
2022-11-08T20:49:01.439Z,10.14
2022-11-08T20:51:48.057Z,10.13
2022-11-08T20:54:34.203Z,10.21
2022-11-08T20:57:20.732Z,10.17
2022-11-08T21:00:15.939Z,10.47
2022-11-08T21:03:04.083Z,10.37
2022-11-08T21:06:14.253Z,10.39
2022-11-08T21:09:05.873Z,10.22
2022-11-08T21:12:03.347Z,10.49
2022-11-08T21:14:49.524Z,10.52
2022-11-08T21:17:36.077Z,10.52
2022-11-08T21:20:22.430Z,10.07
2022-11-08T21:23:08.977Z,10.57
2022-11-08T21:25:55.201Z,10.33
2022-11-08T21:28:42.040Z,10.55
2022-11-08T21:31:29.026Z,10.47
2022-11-08T21:34:15.298Z,10.29
2022-11-08T21:37:01.756Z,10.28
2022-11-08T21:39:48.026Z,10.19
2022-11-08T21:42:39.081Z,10.08
2022-11-08T21:45:26.473Z,9.91
2022-11-08T21:48:15.410Z,9.83
2022-11-08T21:51:05.201Z,9.65
2022-11-08T21:53:55.092Z,9.49
2022-11-08T21:56:41.674Z,9.58
2022-11-08T21:59:27.828Z,9.58
2022-11-08T22:02:15.693Z,9.48
2022-11-08T22:05:02.022Z,9.23
2022-11-08T22:07:48.073Z,9.17
2022-11-08T22:10:36.945Z,9.09
2022-11-08T22:13:23.670Z,8.92
2022-11-08T22:16:09.840Z,8.80
2022-11-08T22:19:05.544Z,8.80
2022-11-08T22:21:52.240Z,8.90
2022-11-08T22:24:39.400Z,9.03
2022-11-08T22:27:25.788Z,8.87
2022-11-08T22:30:16.541Z,8.78
2022-11-08T22:33:03.293Z,8.92
2022-11-08T22:35:49.657Z,8.88
2022-11-08T22:38:36.147Z,8.86
2022-11-08T22:41:23.235Z,8.87
2022-11-08T22:44:12.371Z,8.80
2022-11-08T22:46:58.827Z,8.55
2022-11-08T22:49:45.330Z,8.66
2022-11-08T22:52:31.880Z,8.61
2022-11-08T22:55:18.192Z,8.44
2022-11-08T22:58:04.589Z,8.36
2022-11-08T23:00:51.015Z,8.40
2022-11-08T23:03:37.253Z,8.48
2022-11-08T23:06:23.557Z,8.37
2022-11-08T23:09:10.008Z,8.25
2022-11-08T23:12:14.951Z,8.28
2022-11-08T23:15:19.836Z,8.30
2022-11-08T23:18:05.990Z,8.11
2022-11-08T23:21:13.389Z,8.40
2022-11-08T23:24:18.402Z,8.27
2022-11-08T23:27:25.340Z,8.41
2022-11-08T23:30:35.039Z,8.52
2022-11-08T23:33:21.805Z,8.36
2022-11-08T23:36:11.448Z,8.53
2022-11-08T23:38:58.122Z,8.56
2022-11-08T23:42:03.061Z,8.56
2022-11-08T23:44:49.246Z,8.60
2022-11-08T23:47:35.464Z,8.63
2022-11-08T23:50:21.800Z,8.69
2022-11-08T23:53:08.077Z,8.54
2022-11-08T23:55:54.765Z,8.48
2022-11-08T23:58:40.922Z,8.55
